createdAt,value
2023-04-30T00:01:13.392Z,8.51
2023-04-30T00:11:15.819Z,8.25
2023-04-30T00:21:18.154Z,8.28
2023-04-30T00:31:20.477Z,7.92
2023-04-30T00:41:23.529Z,7.58
2023-04-30T00:51:27.035Z,7.66
2023-04-30T01:01:29.804Z,7.65
2023-04-30T01:12:10.794Z,7.62
2023-04-30T01:22:37.985Z,7.45
2023-04-30T01:32:40.335Z,7.14
2023-04-30T01:42:53.552Z,6.99
2023-04-30T05:37:53.296Z,6.91
2023-04-30T05:47:55.736Z,8.62
2023-04-30T05:57:58.140Z,9.82
2023-04-30T06:08:00.483Z,9.88
2023-04-30T06:18:03.306Z,10.21
2023-04-30T06:28:06.268Z,10.97
2023-04-30T06:38:08.627Z,10.84
2023-04-30T06:48:10.960Z,10.48
2023-04-30T06:58:13.531Z,10.87
2023-04-30T07:08:15.912Z,11.06
2023-04-30T07:18:18.352Z,11.27
2023-04-30T07:28:20.817Z,12.02
2023-04-30T07:38:24.154Z,12.88
2023-04-30T07:48:26.676Z,12.18
2023-04-30T07:58:29.216Z,12.46
2023-04-30T08:08:31.757Z,12.78
2023-04-30T08:18:34.132Z,13.31
2023-04-30T08:28:36.635Z,12.37
2023-04-30T08:38:39.076Z,13.57
2023-04-30T08:48:42.126Z,13.71
2023-04-30T08:58:44.615Z,14.19
2023-04-30T09:08:49.213Z,13.55
2023-04-30T09:18:52.743Z,13.44
2023-04-30T09:28:57.778Z,12.68
2023-04-30T09:39:10.289Z,13.32
2023-04-30T09:49:14.158Z,12.85
2023-04-30T09:59:21.397Z,12.75
2023-04-30T10:09:28.692Z,13.25
2023-04-30T10:19:35.104Z,13.08
2023-04-30T10:29:37.836Z,12.19
2023-04-30T10:39:41.718Z,12.31
2023-04-30T10:49:49.590Z,13.33
2023-04-30T10:59:54.420Z,12.86
2023-04-30T11:09:58.248Z,12.95
2023-04-30T11:20:02.793Z,13.28
2023-04-30T11:30:19.753Z,13.25
2023-04-30T11:40:22.443Z,13.54
2023-04-30T11:50:29.585Z,13.65
2023-04-30T12:00:32.201Z,13.74
2023-04-30T12:10:34.693Z,13.73
2023-04-30T12:20:38.531Z,14.04
2023-04-30T12:30:43.508Z,14.26
2023-04-30T12:40:49.446Z,14.31
2023-04-30T12:51:01.153Z,14.55
2023-04-30T13:01:03.724Z,14.92
2023-04-30T13:11:06.082Z,15.18
2023-04-30T13:21:08.390Z,15.03
2023-04-30T13:31:10.747Z,15.20
2023-04-30T13:41:13.686Z,14.86
2023-04-30T13:51:15.994Z,14.88
2023-04-30T14:01:18.303Z,14.98
2023-04-30T14:11:21.104Z,15.27
2023-04-30T14:21:23.517Z,14.96
2023-04-30T14:31:26.030Z,15.09
2023-04-30T14:41:28.416Z,14.85
2023-04-30T14:51:32.163Z,15.25
2023-04-30T15:01:34.633Z,15.14
2023-04-30T15:11:37.066Z,15.00
2023-04-30T15:21:39.353Z,14.86
2023-04-30T15:31:42.309Z,15.14
2023-04-30T15:41:47.851Z,15.02
2023-04-30T15:51:53.033Z,14.74
2023-04-30T16:01:55.446Z,14.58
2023-04-30T16:11:59.113Z,14.42
2023-04-30T16:22:02.024Z,14.13
2023-04-30T16:32:04.609Z,13.88
2023-04-30T16:42:06.996Z,13.46
2023-04-30T16:52:09.331Z,13.03
2023-04-30T17:02:11.725Z,12.59
2023-04-30T17:12:14.186Z,11.92
2023-04-30T17:22:20.017Z,11.22
2023-04-30T17:32:22.495Z,10.46
2023-04-30T17:42:24.819Z,9.71
2023-04-30T17:52:27.210Z,8.98
2023-04-30T18:02:29.770Z,8.24
2023-04-30T18:12:32.309Z,7.58
2023-04-30T18:22:35.057Z,6.97
2023-04-30T18:32:37.934Z,6.45
2023-04-30T18:42:40.356Z,6.08
2023-04-30T18:52:42.786Z,5.58
2023-04-30T19:02:45.242Z,5.19
2023-04-30T19:12:47.872Z,4.83
2023-04-30T19:22:50.538Z,4.58
2023-04-30T19:32:52.919Z,4.32
2023-04-30T19:42:55.316Z,4.14
2023-04-30T19:52:57.601Z,3.91
2023-04-30T20:03:04.462Z,3.65
2023-04-30T20:13:07.376Z,3.37
2023-04-30T20:23:14.304Z,3.25
2023-04-30T20:40:11.663Z,3.15
2023-04-30T20:50:15.515Z,3.00
2023-04-30T21:00:18.417Z,2.89
2023-04-30T21:10:20.777Z,2.91
2023-04-30T21:20:23.162Z,2.70
2023-04-30T21:30:26.717Z,2.49
2023-04-30T21:40:32.446Z,2.38
2023-04-30T21:50:35.663Z,2.13
2023-04-30T22:00:39.354Z,1.84
2023-04-30T22:10:41.715Z,1.66
2023-04-30T22:20:44.110Z,1.46
2023-04-30T22:30:46.971Z,1.25
2023-04-30T22:40:49.353Z,1.04
2023-04-30T22:50:55.695Z,0.88
2023-04-30T23:00:58.167Z,0.63
2023-04-30T23:11:00.806Z,0.42
2023-04-30T23:21:03.875Z,0.33
2023-04-30T23:31:06.237Z,0.25
2023-04-30T23:41:09.170Z,0.13
2023-04-30T23:51:11.773Z,0.09
